This is the latest recevied weather packets stored in our database for station/object KY4OP-13. If no packets are shown the sender has not sent any weather packets the latest 10 day(s).
| Time | Temp. | Humidity | Pressure | Rain* | Wind** | Luminosity | Snow |
|---|---|---|---|---|---|---|---|
| 1777896785 | 9.44° C | 74% | 1017.2 hPa | 0 mm | - | - | - |
| 1777896483 | 9.44° C | 74% | 1017.1 hPa | 0 mm | - | - | - |
| 1777896180 | 9.44° C | 73% | 1017.2 hPa | 0 mm | - | - | - |
| 1777895878 | 8.89° C | 76% | 1017 hPa | 0 mm | - | - | - |
| 1777895575 | 8.33° C | 76% | 1017.3 hPa | 0 mm | - | - | - |
| 1777895273 | 8.33° C | 77% | 1017.3 hPa | 0 mm | - | - | - |
| 1777894970 | 7.78° C | 81% | 1017.2 hPa | 0 mm | - | - | - |
| 1777894667 | 7.78° C | 82% | 1017.5 hPa | 0 mm | - | - | - |
| 1777894364 | 7.78° C | 80% | 1017.1 hPa | 0 mm | - | - | - |
| 1777894062 | 7.22° C | 84% | 1017.4 hPa | 0 mm | - | - | - |
| 1777893758 | 6.67° C | 86% | 1017 hPa | 0 mm | - | - | - |
| 1777893454 | 6.11° C | 88% | 1017.3 hPa | 0 mm | - | - | - |
| 1777893151 | 5.56° C | 88% | 1017.4 hPa | 0 mm | - | - | - |
| 1777892848 | 5.56° C | 90% | 1017.3 hPa | 0 mm | - | - | - |
| 1777892544 | 5.56° C | 90% | 1017.5 hPa | 0 mm | - | - | - |
| 1777892239 | 5° C | 90% | 1017.4 hPa | 0 mm | - | - | - |
| 1777891936 | 5° C | 89% | 1017.2 hPa | 0 mm | - | - | - |
| 1777891634 | 5° C | 89% | 1017.2 hPa | 0 mm | - | - | - |
| 1777891330 | 5° C | 89% | 1017.3 hPa | 0 mm | - | - | - |
| 1777891025 | 5° C | 89% | 1017.5 hPa | 0 mm | - | - | - |
| 1777890720 | 5° C | 89% | 1017.3 hPa | 0 mm | - | - | - |
| 1777890416 | 5° C | 89% | 1017.2 hPa | 0 mm | - | - | - |
| 1777890112 | 5° C | 89% | 1017.1 hPa | 0 mm | - | - | - |
| 1777889810 | 5° C | 89% | 1017.2 hPa | 0 mm | - | - | - |
| 1777889506 | 5° C | 89% | 1017.2 hPa | 0 mm | - | - | - |
* Rain latest hour (hover to see other rain measurements)
** Current wind speed in m/s (hover to see current wind gust speed)